createdAt,value
2022-11-16T00:03:49.432Z,11.1
2022-11-16T00:05:49.093Z,11.2
2022-11-16T00:07:48.783Z,11.2
2022-11-16T00:09:48.442Z,11.1
2022-11-16T00:11:48.129Z,11.1
2022-11-16T00:13:47.800Z,11.1
2022-11-16T00:15:50.886Z,11.2
2022-11-16T00:17:50.547Z,11
2022-11-16T00:19:50.178Z,11.1
2022-11-16T00:20:51.740Z,11.1
2022-11-16T00:22:51.411Z,11
2022-11-16T00:24:51.103Z,11.1
2022-11-16T00:28:53.870Z,11.2
2022-11-16T00:30:53.515Z,11.1
2022-11-16T00:32:53.194Z,11.1
2022-11-16T00:34:52.872Z,11.2
2022-11-16T00:36:52.547Z,11.1
2022-11-16T00:38:52.183Z,11.2
2022-11-16T00:40:51.861Z,11.1
2022-11-16T00:42:54.915Z,11.1
2022-11-16T00:44:54.591Z,11.2
2022-11-16T00:46:54.249Z,11.2
2022-11-16T00:48:53.914Z,11.1
2022-11-16T00:50:53.579Z,11.2
2022-11-16T00:52:53.223Z,11.2
2022-11-16T00:54:52.894Z,11.2
2022-11-16T00:56:55.959Z,11.1
2022-11-16T00:58:55.633Z,11.1
2022-11-16T01:00:55.367Z,11.2
2022-11-16T01:02:54.957Z,11.1
2022-11-16T01:04:54.628Z,11.1
2022-11-16T01:06:54.366Z,11.3
2022-11-16T01:08:53.974Z,11.2
2022-11-16T01:10:57.044Z,11.3
2022-11-16T01:12:56.723Z,11.1
2022-11-16T01:14:56.353Z,11.2
2022-11-16T01:17:17.943Z,11.2
2022-11-16T01:19:17.605Z,11.2
2022-11-16T01:21:17.271Z,11.2
2022-11-16T01:23:20.337Z,11.2
2022-11-16T01:25:19.998Z,11.1
2022-11-16T01:27:19.685Z,11.1
2022-11-16T01:29:19.343Z,11.2
2022-11-16T01:33:18.648Z,11.2
2022-11-16T01:35:18.374Z,11.2
2022-11-16T01:51:22.480Z,11.3
2022-11-16T01:53:22.110Z,11.3
2022-11-16T01:55:21.803Z,11.2
2022-11-16T01:57:21.458Z,11.3
2022-11-16T01:59:21.153Z,11.2
2022-11-16T02:01:20.956Z,11.3
2022-11-16T02:03:20.484Z,11.2
2022-11-16T02:05:23.513Z,11.2
2022-11-16T02:07:23.270Z,11.2
2022-11-16T02:09:22.874Z,11.1
2022-11-16T02:10:24.401Z,11.1
2022-11-16T02:14:23.713Z,11.1
2022-11-16T02:16:23.385Z,11.2
2022-11-16T02:18:26.436Z,11.1
2022-11-16T02:20:26.101Z,11.2
2022-11-16T02:22:25.791Z,11.2
2022-11-16T02:26:25.105Z,11.1
2022-11-16T02:28:24.800Z,11.1
2022-11-16T02:30:24.471Z,11.1
2022-11-16T02:32:27.525Z,11
2022-11-16T02:34:27.229Z,11.2
2022-11-16T02:40:26.196Z,11.2
2022-11-16T02:42:25.849Z,11.2
2022-11-16T02:44:25.524Z,11.1
2022-11-16T02:46:28.582Z,11.2
2022-11-16T02:48:28.244Z,11.2
2022-11-16T02:50:27.927Z,11.2
2022-11-16T02:52:27.585Z,11
2022-11-16T02:54:27.250Z,11
2022-11-16T02:56:26.932Z,11.2
2022-11-16T02:58:26.619Z,11.1
2022-11-16T03:00:29.686Z,11.2
2022-11-16T03:02:29.360Z,11
2022-11-16T03:04:29.017Z,11
2022-11-16T03:09:29.868Z,11.1
2022-11-16T03:11:29.534Z,11.1
2022-11-16T03:13:32.625Z,11.1
2022-11-16T03:15:32.288Z,11
2022-11-16T03:17:31.930Z,11.1
2022-11-16T03:19:31.637Z,11
2022-11-16T03:23:30.947Z,11.1
2022-11-16T03:25:30.607Z,11.1
2022-11-16T03:27:33.659Z,11.1
2022-11-16T03:29:33.304Z,11
2022-11-16T03:31:32.987Z,11.1
2022-11-16T03:33:32.676Z,10.9
2022-11-16T03:35:32.315Z,11.1
2022-11-16T03:37:31.987Z,11
2022-11-16T03:39:31.653Z,10.9
2022-11-16T03:41:34.707Z,11
2022-11-16T03:43:34.372Z,10.8
2022-11-16T03:45:34.065Z,11
2022-11-16T03:47:33.726Z,11
2022-11-16T03:49:33.395Z,10.9
2022-11-16T03:51:33.068Z,11
2022-11-16T03:53:32.758Z,10.9
2022-11-16T03:55:35.886Z,10.9
2022-11-16T03:57:35.531Z,11
2022-11-16T03:59:35.174Z,11
2022-11-16T04:00:36.751Z,11
2022-11-16T04:02:36.393Z,11
2022-11-16T04:04:36.089Z,11
2022-11-16T04:06:35.752Z,11
2022-11-16T04:08:38.767Z,10.9
2022-11-16T04:10:38.485Z,10.9
2022-11-16T04:12:38.136Z,10.9
2022-11-16T04:14:37.805Z,10.9
2022-11-16T04:16:37.489Z,10.9
2022-11-16T04:18:37.392Z,11
2022-11-16T04:20:36.783Z,10.9
2022-11-16T04:22:39.883Z,10.9
2022-11-16T04:24:39.531Z,11
2022-11-16T04:26:39.221Z,10.9
2022-11-16T04:28:38.923Z,10.9
2022-11-16T04:30:38.763Z,11.1
2022-11-16T04:32:38.228Z,11
2022-11-16T04:34:37.893Z,10.9
2022-11-16T04:36:40.988Z,11.1
2022-11-16T04:38:40.640Z,11.1
2022-11-16T04:40:40.412Z,11.1
2022-11-16T04:42:39.975Z,11
2022-11-16T04:44:39.653Z,10.9
2022-11-16T04:46:39.331Z,11
2022-11-16T04:48:38.982Z,11.1
2022-11-16T04:50:42.153Z,11
2022-11-16T04:52:41.674Z,10.9
2022-11-16T04:54:41.330Z,11
2022-11-16T04:57:01.463Z,10.9
2022-11-16T04:59:01.149Z,11.1
2022-11-16T05:01:00.826Z,11.1
2022-11-16T05:03:03.846Z,10.9
2022-11-16T05:05:03.524Z,10.9
2022-11-16T05:07:03.311Z,11
2022-11-16T05:09:02.871Z,11.1
2022-11-16T05:15:01.892Z,11
2022-11-16T05:17:04.946Z,10.8
2022-11-16T05:19:04.591Z,10.8
2022-11-16T05:21:04.257Z,10.9
2022-11-16T05:23:05.469Z,10.9
2022-11-16T05:25:05.108Z,10.8
2022-11-16T05:27:04.799Z,10.8
2022-11-16T05:29:04.440Z,10.7
2022-11-16T05:31:07.528Z,10.6
2022-11-16T05:33:07.186Z,10.7
2022-11-16T05:35:06.888Z,10.6
2022-11-16T05:37:06.549Z,10.6
2022-11-16T05:39:06.251Z,10.7
2022-11-16T05:41:05.899Z,10.6
2022-11-16T05:43:05.552Z,10.4
2022-11-16T05:45:08.634Z,10.4
2022-11-16T05:47:08.331Z,10.4
2022-11-16T05:49:08.026Z,10.5
2022-11-16T05:50:09.551Z,10.3
2022-11-16T05:52:09.233Z,10.5
2022-11-16T05:54:08.914Z,10.3
2022-11-16T05:56:08.779Z,10.4
2022-11-16T05:58:11.673Z,10.3
2022-11-16T06:00:11.336Z,10.3
2022-11-16T06:02:11.056Z,10.2
2022-11-16T06:04:10.722Z,10.3
2022-11-16T06:06:10.375Z,10.3
2022-11-16T06:08:10.068Z,10.2
2022-11-16T06:10:09.753Z,10.2
2022-11-16T06:12:12.840Z,10.1
2022-11-16T06:14:12.492Z,10.3
2022-11-16T06:22:11.266Z,10.2
2022-11-16T06:24:10.898Z,10.2
2022-11-16T06:28:13.665Z,10
2022-11-16T06:30:13.366Z,10.1
2022-11-16T06:32:13.037Z,9.9
2022-11-16T06:34:12.733Z,9.9
2022-11-16T06:36:12.407Z,10.1
2022-11-16T06:38:12.086Z,10
2022-11-16T06:40:15.190Z,9.9
2022-11-16T06:42:14.869Z,9.9
2022-11-16T06:44:14.568Z,10
2022-11-16T06:45:16.135Z,9.8
2022-11-16T06:47:15.811Z,9.8
2022-11-16T06:49:16.671Z,9.9
2022-11-16T06:53:29.410Z,9.8
2022-11-16T06:59:36.662Z,9.7
2022-11-16T07:03:18.694Z,9.6
2022-11-16T07:08:28.532Z,9.5
2022-11-16T07:11:24.217Z,9.4
2022-11-16T07:13:50.549Z,9.4
2022-11-16T07:21:20.836Z,9.3
2022-11-16T07:25:20.250Z,9.2
2022-11-16T07:27:20.005Z,9.1
2022-11-16T07:29:19.700Z,9.1
2022-11-16T07:33:19.118Z,9
2022-11-16T07:35:22.239Z,9
2022-11-16T07:37:21.946Z,9.1
2022-11-16T07:39:21.657Z,9
2022-11-16T07:40:23.201Z,9.1
2022-11-16T07:42:22.896Z,9.1
2022-11-16T07:44:22.617Z,9.1
2022-11-16T07:46:46.569Z,9.1
2022-11-16T07:48:25.466Z,9.1
2022-11-16T07:50:25.155Z,9.2
2022-11-16T07:52:24.915Z,9.1
2022-11-16T07:54:24.583Z,9.2
2022-11-16T07:56:24.300Z,9.2
2022-11-16T07:58:24.034Z,9.7
2022-11-16T08:00:23.762Z,9.7
2022-11-16T08:02:26.856Z,9.5
2022-11-16T08:04:26.582Z,9.5
2022-11-16T08:06:26.315Z,9.5
2022-11-16T08:08:26.118Z,9.6
2022-11-16T08:10:25.892Z,9.7
2022-11-16T08:12:25.542Z,9.8
2022-11-16T08:18:34.033Z,9.7
2022-11-16T08:22:27.521Z,9.9
2022-11-16T08:24:27.224Z,10
2022-11-16T08:28:26.656Z,10
2022-11-16T08:36:51.111Z,10
2022-11-16T08:38:50.856Z,10
2022-11-16T08:40:50.516Z,10
2022-11-16T08:42:53.618Z,10
2022-11-16T08:44:53.349Z,10.1
2022-11-16T08:46:53.068Z,10.3
2022-11-16T08:48:52.768Z,10.3
2022-11-16T08:51:15.761Z,10.3
2022-11-16T08:52:52.164Z,10.3
2022-11-16T08:54:51.860Z,10.3
2022-11-16T09:00:54.364Z,10.3
2022-11-16T09:02:54.075Z,10.4
2022-11-16T09:04:53.776Z,10.5
2022-11-16T09:06:53.533Z,10.6
2022-11-16T09:08:53.186Z,10.6
2022-11-16T09:10:56.266Z,10.6
2022-11-16T09:12:55.925Z,10.5
2022-11-16T09:14:55.645Z,10.5
2022-11-16T09:16:55.348Z,10.7
2022-11-16T09:18:55.001Z,10.9
2022-11-16T09:20:54.725Z,10.9
2022-11-16T09:22:54.405Z,10.9
2022-11-16T09:24:57.497Z,10.8
2022-11-16T09:26:57.180Z,10.8
2022-11-16T09:28:56.899Z,10.7
2022-11-16T09:29:58.391Z,10.7
2022-11-16T09:31:58.093Z,10.7
2022-11-16T09:33:57.743Z,10.9
2022-11-16T09:35:57.441Z,11.1
2022-11-16T09:38:00.505Z,12.2
2022-11-16T09:40:00.159Z,12.9
2022-11-16T09:41:59.842Z,12.7
2022-11-16T09:43:59.497Z,13
2022-11-16T09:52:01.537Z,14.9
2022-11-16T09:54:01.164Z,14.9
2022-11-16T09:56:00.780Z,14
2022-11-16T09:58:00.382Z,14.8
2022-11-16T10:01:59.666Z,15.1
2022-11-16T10:06:02.278Z,15.9
2022-11-16T10:08:01.859Z,16.4
2022-11-16T10:10:01.442Z,16.6
2022-11-16T10:12:01.051Z,16.3
2022-11-16T10:14:04.148Z,14.7
2022-11-16T10:17:59.723Z,12.6
2022-11-16T10:20:02.692Z,12.5
2022-11-16T10:22:02.269Z,13.6
2022-11-16T10:24:01.831Z,14.3
2022-11-16T10:25:03.297Z,13.7
2022-11-16T10:27:02.881Z,14.1
2022-11-16T10:29:02.415Z,13.6
2022-11-16T10:31:03.010Z,14.4
2022-11-16T10:33:10.705Z,12.9
2022-11-16T10:35:04.508Z,13.5
2022-11-16T10:37:04.083Z,13.1
2022-11-16T10:39:03.651Z,13.5
2022-11-16T10:41:03.202Z,15.9
2022-11-16T10:43:02.813Z,14.9
2022-11-16T10:45:02.368Z,13.7
2022-11-16T10:47:05.346Z,16.6
2022-11-16T10:49:04.908Z,17
2022-11-16T10:51:04.469Z,17
2022-11-16T10:53:04.042Z,17.8
2022-11-16T10:55:03.566Z,18.3
2022-11-16T10:57:03.090Z,17.5
2022-11-16T10:59:02.611Z,18.1
2022-11-16T11:01:05.590Z,17.8
2022-11-16T11:03:05.083Z,17.9
2022-11-16T11:05:04.597Z,16.6
2022-11-16T11:07:04.117Z,15.9
2022-11-16T11:09:05.139Z,15.4
2022-11-16T11:13:04.096Z,13.5
2022-11-16T11:15:07.006Z,12.7
2022-11-16T11:17:06.483Z,12.6
2022-11-16T11:19:06.024Z,12.3
2022-11-16T11:24:42.318Z,12.5
2022-11-16T11:26:06.020Z,12.4
2022-11-16T11:28:08.986Z,15.9
2022-11-16T11:34:07.641Z,15.5
2022-11-16T11:36:07.166Z,14.9
2022-11-16T11:38:08.315Z,16.5
2022-11-16T11:44:08.770Z,13.7
2022-11-16T11:46:08.314Z,13.3
2022-11-16T11:48:07.834Z,13.8
2022-11-16T11:54:06.471Z,12.9
2022-11-16T11:56:09.437Z,12.9
2022-11-16T11:58:08.962Z,13.6
2022-11-16T12:02:08.082Z,14.4
2022-11-16T12:06:07.177Z,17
2022-11-16T12:08:06.716Z,14.6
2022-11-16T12:12:13.334Z,14.8
2022-11-16T12:14:08.777Z,16.5
2022-11-16T12:16:29.833Z,17.5
2022-11-16T12:18:29.383Z,17.3
2022-11-16T12:20:28.917Z,16
2022-11-16T12:22:31.872Z,13.7
2022-11-16T12:24:31.429Z,14.2
2022-11-16T12:26:30.977Z,15
2022-11-16T12:28:30.511Z,16.1
2022-11-16T12:30:30.046Z,16
2022-11-16T12:32:29.581Z,17.2
2022-11-16T12:40:31.140Z,18.6
2022-11-16T12:42:30.655Z,17.7
2022-11-16T12:44:30.147Z,17.7
2022-11-16T12:46:29.675Z,18.1
2022-11-16T12:48:29.167Z,17.7
2022-11-16T12:50:32.182Z,15.6
2022-11-16T12:52:31.606Z,14.9
2022-11-16T12:54:31.086Z,13.8
2022-11-16T12:56:30.625Z,12.9
2022-11-16T12:58:30.136Z,12.5
2022-11-16T13:00:29.667Z,12.2
2022-11-16T13:02:29.177Z,12.1
2022-11-16T13:04:32.115Z,12.1
2022-11-16T13:06:31.660Z,12.3
2022-11-16T13:08:31.233Z,12.5
2022-11-16T13:09:32.698Z,12.4
2022-11-16T13:11:32.254Z,12.5
2022-11-16T13:13:36.647Z,12.4
2022-11-16T13:15:31.361Z,12.6
2022-11-16T13:17:34.316Z,13.8
2022-11-16T13:19:33.904Z,13.4
2022-11-16T13:21:33.498Z,13
2022-11-16T13:23:33.381Z,12.9
2022-11-16T13:25:32.654Z,13.6
2022-11-16T13:27:32.246Z,13.9
2022-11-16T13:29:31.804Z,15.9
2022-11-16T13:33:34.426Z,13.5
2022-11-16T13:35:34.003Z,12.9
2022-11-16T13:37:33.584Z,12.5
2022-11-16T13:39:33.191Z,12.5
2022-11-16T13:41:32.798Z,15
2022-11-16T13:43:32.397Z,16.6
2022-11-16T13:45:35.397Z,16.7
2022-11-16T13:47:34.964Z,15.7
2022-11-16T13:51:34.192Z,13.1
2022-11-16T13:55:33.381Z,13.6
2022-11-16T13:57:32.984Z,13.3
2022-11-16T13:59:35.985Z,13
2022-11-16T14:01:35.602Z,12.8
2022-11-16T14:04:36.689Z,15.3
2022-11-16T14:08:35.896Z,17.5
2022-11-16T14:10:35.547Z,19
2022-11-16T14:14:38.142Z,18
2022-11-16T14:16:37.767Z,17.5
2022-11-16T14:18:37.478Z,18
2022-11-16T14:20:36.980Z,18.2
2022-11-16T14:22:36.565Z,18.1
2022-11-16T14:24:36.163Z,17.4
2022-11-16T14:26:39.153Z,15.1
2022-11-16T14:28:38.742Z,14.2
2022-11-16T14:30:38.351Z,12.9
2022-11-16T14:32:42.547Z,12.3
2022-11-16T14:34:37.547Z,11.9
2022-11-16T14:36:37.132Z,11.6
2022-11-16T14:38:36.718Z,11.5
2022-11-16T14:40:39.747Z,11.4
2022-11-16T14:43:01.561Z,11.3
2022-11-16T14:44:38.959Z,11.6
2022-11-16T14:46:38.590Z,12.8
2022-11-16T14:48:38.188Z,14.3
2022-11-16T14:54:40.433Z,13
2022-11-16T14:56:40.084Z,12.8
2022-11-16T14:58:39.696Z,12.4
2022-11-16T14:59:41.214Z,12.1
2022-11-16T15:01:40.858Z,12.1
2022-11-16T15:03:40.549Z,11.8
2022-11-16T15:05:40.097Z,11.6
2022-11-16T15:07:43.107Z,11.3
2022-11-16T15:09:42.758Z,11.2
2022-11-16T15:11:42.401Z,11
2022-11-16T15:13:42.042Z,11
2022-11-16T15:15:41.708Z,11
2022-11-16T15:17:41.340Z,11
2022-11-16T15:25:43.342Z,10.8
2022-11-16T15:33:42.063Z,10.5
2022-11-16T15:35:45.076Z,10.2
2022-11-16T15:37:44.758Z,10.2
2022-11-16T15:39:44.429Z,10.1
2022-11-16T15:45:43.478Z,9.9
2022-11-16T15:47:43.140Z,9.9
2022-11-16T15:49:46.244Z,9.8
2022-11-16T15:56:00.942Z,9.7
2022-11-16T16:00:00.307Z,9.8
2022-11-16T16:04:03.044Z,9.7
2022-11-16T16:06:03.003Z,9.7
2022-11-16T16:08:02.441Z,9.6
2022-11-16T16:10:02.122Z,9.6
2022-11-16T16:12:01.810Z,9.6
2022-11-16T16:14:01.503Z,9.7
2022-11-16T16:16:04.573Z,9.7
2022-11-16T16:22:03.607Z,9.8
2022-11-16T16:24:03.307Z,9.8
2022-11-16T16:26:02.953Z,9.8
2022-11-16T16:28:02.654Z,9.6
2022-11-16T16:30:05.716Z,9.6
2022-11-16T16:32:05.388Z,9.5
2022-11-16T16:34:05.037Z,9.5
2022-11-16T16:36:04.875Z,9.4
2022-11-16T16:38:04.395Z,9.4
2022-11-16T16:40:04.113Z,9.3
2022-11-16T16:42:03.773Z,9.3
2022-11-16T16:44:06.862Z,9.2
2022-11-16T16:48:06.219Z,9
2022-11-16T16:49:07.784Z,9.1
2022-11-16T16:51:07.485Z,9.2
2022-11-16T16:53:08.737Z,9.2
2022-11-16T16:55:08.391Z,9.1
2022-11-16T16:57:11.461Z,9.2
2022-11-16T16:59:11.147Z,9.2
2022-11-16T17:01:10.923Z,9.2
2022-11-16T17:05:10.435Z,9.2
2022-11-16T17:07:09.964Z,9.2
2022-11-16T17:09:09.637Z,9.2
2022-11-16T17:11:12.741Z,9.2
2022-11-16T17:13:12.426Z,9.2
2022-11-16T17:15:16.452Z,9.2
2022-11-16T17:17:11.825Z,9.2
2022-11-16T17:19:11.523Z,9.2
2022-11-16T17:21:11.238Z,9.1
2022-11-16T17:23:10.923Z,9
2022-11-16T17:25:14.038Z,9
2022-11-16T17:27:13.740Z,9
2022-11-16T17:35:12.578Z,8.9
2022-11-16T17:37:12.283Z,8.9
2022-11-16T17:41:15.116Z,8.9
2022-11-16T17:43:14.878Z,8.9
2022-11-16T17:44:21.268Z,8.8
2022-11-16T17:46:16.083Z,8.8
2022-11-16T17:48:15.808Z,8.8
2022-11-16T17:50:15.529Z,8.8
2022-11-16T17:52:18.636Z,8.8
2022-11-16T17:54:18.386Z,8.8
2022-11-16T17:56:18.194Z,8.8
2022-11-16T17:58:17.903Z,8.8
2022-11-16T18:00:17.710Z,8.8
2022-11-16T18:02:17.462Z,8.9
2022-11-16T18:04:17.255Z,8.9
2022-11-16T18:06:20.365Z,9.1
2022-11-16T18:08:20.100Z,9.1
2022-11-16T18:10:19.815Z,9.1
2022-11-16T18:12:19.514Z,9.2
2022-11-16T18:14:19.238Z,9.2
2022-11-16T18:16:18.950Z,9.3
2022-11-16T18:18:18.654Z,9.4
2022-11-16T18:20:21.768Z,9.3
2022-11-16T18:22:21.470Z,9.4
2022-11-16T18:24:21.197Z,9.3
2022-11-16T18:26:20.931Z,9.3
2022-11-16T18:28:20.633Z,9.2
2022-11-16T18:30:20.338Z,9.2
2022-11-16T18:32:20.059Z,9.1
2022-11-16T18:34:23.192Z,9
2022-11-16T18:38:22.602Z,8.8
2022-11-16T18:39:24.127Z,8.7
2022-11-16T18:49:26.109Z,8.6
2022-11-16T19:01:28.121Z,8.7
2022-11-16T19:03:27.840Z,8.8
2022-11-16T19:05:27.571Z,8.8
2022-11-16T19:07:27.316Z,8.9
2022-11-16T19:09:27.023Z,8.9
2022-11-16T19:13:26.533Z,9.1
2022-11-16T19:15:29.647Z,9.2
2022-11-16T19:17:29.387Z,9.3
2022-11-16T19:19:29.115Z,9.3
2022-11-16T19:21:28.916Z,9.3
2022-11-16T19:23:28.645Z,9.4
2022-11-16T19:25:28.369Z,9.4
2022-11-16T19:27:28.094Z,9.4
2022-11-16T19:29:31.309Z,9.4
2022-11-16T19:33:30.710Z,9.6
2022-11-16T19:39:52.229Z,9.7
2022-11-16T19:43:55.026Z,9.8
2022-11-16T19:45:54.756Z,9.8
2022-11-16T19:47:54.431Z,9.8
2022-11-16T19:49:54.164Z,9.8
2022-11-16T19:51:53.858Z,9.8
2022-11-16T19:53:53.559Z,9.8
2022-11-16T19:55:56.759Z,9.9
2022-11-16T19:57:56.331Z,9.8
2022-11-16T19:59:56.044Z,9.8
2022-11-16T20:01:55.752Z,9.9
2022-11-16T20:03:55.441Z,9.9
2022-11-16T20:05:55.290Z,9.8
2022-11-16T20:07:54.857Z,9.9
2022-11-16T20:09:57.998Z,9.8
2022-11-16T20:11:57.667Z,9.8
2022-11-16T20:17:57.301Z,9.9
2022-11-16T20:19:57.030Z,9.8
2022-11-16T20:21:56.726Z,9.9
2022-11-16T20:29:00.731Z,9.9
2022-11-16T20:31:00.458Z,9.9
2022-11-16T20:33:00.153Z,9.9
2022-11-16T20:34:59.856Z,9.9
2022-11-16T20:37:02.928Z,9.9
2022-11-16T20:39:02.609Z,9.8
2022-11-16T20:41:02.300Z,9.9
2022-11-16T20:43:02.001Z,9.8
2022-11-16T20:45:01.708Z,9.8
2022-11-16T20:47:01.376Z,9.8
2022-11-16T20:49:01.070Z,9.9
2022-11-16T20:51:04.193Z,9.8
2022-11-16T20:53:03.908Z,9.8
2022-11-16T20:55:03.597Z,9.7
2022-11-16T21:05:05.483Z,9.7
2022-11-16T21:07:05.234Z,9.7
2022-11-16T21:09:04.891Z,9.7
2022-11-16T21:11:04.581Z,9.6
2022-11-16T21:13:04.317Z,9.6
2022-11-16T21:15:04.006Z,9.6
2022-11-16T21:17:03.711Z,9.6
2022-11-16T21:19:06.826Z,9.5
2022-11-16T21:21:06.537Z,9.5
2022-11-16T21:23:06.211Z,9.4
2022-11-16T21:26:07.448Z,9.4
2022-11-16T21:28:07.167Z,9.4
2022-11-16T21:30:06.850Z,9.5
2022-11-16T21:32:09.972Z,9.5
2022-11-16T21:34:09.665Z,9.5
2022-11-16T21:36:09.349Z,9.5
2022-11-16T21:38:09.098Z,9.6
2022-11-16T21:40:08.795Z,9.6
2022-11-16T21:42:08.490Z,9.6
2022-11-16T21:44:08.219Z,9.7
2022-11-16T21:46:11.311Z,9.7
2022-11-16T21:48:10.988Z,9.8
2022-11-16T21:50:31.260Z,9.8
2022-11-16T21:52:10.408Z,9.9
2022-11-16T21:54:10.123Z,9.9
2022-11-16T21:56:09.821Z,9.9
2022-11-16T21:58:09.545Z,10.1
2022-11-16T22:00:12.666Z,10
2022-11-16T22:02:12.346Z,10
2022-11-16T22:04:12.011Z,10
2022-11-16T22:06:11.967Z,10
2022-11-16T22:08:11.421Z,10
2022-11-16T22:10:11.107Z,10
2022-11-16T22:12:10.844Z,10
2022-11-16T22:14:13.874Z,10.1
2022-11-16T22:16:13.588Z,10
2022-11-16T22:18:13.278Z,10
2022-11-16T22:19:14.850Z,10
2022-11-16T22:21:14.581Z,10
2022-11-16T22:23:17.506Z,10.1
2022-11-16T22:25:13.949Z,10.1
2022-11-16T22:27:17.030Z,10.1
2022-11-16T22:29:16.741Z,10.1
2022-11-16T22:31:16.430Z,10.1
2022-11-16T22:33:16.117Z,10.1
2022-11-16T22:35:15.820Z,10
2022-11-16T22:37:15.529Z,10.1
2022-11-16T22:39:16.777Z,10.1
2022-11-16T22:41:19.831Z,10.1
2022-11-16T22:43:19.532Z,10.1
2022-11-16T22:45:19.226Z,10.1
2022-11-16T22:47:18.910Z,10.2
2022-11-16T22:55:21.110Z,10.2
2022-11-16T22:57:20.817Z,10.2
2022-11-16T22:59:20.505Z,10.1
2022-11-16T23:01:20.167Z,10.2
2022-11-16T23:03:19.964Z,10.2
2022-11-16T23:05:19.576Z,10.2
2022-11-16T23:07:19.320Z,10.2
2022-11-16T23:09:22.343Z,10.1
2022-11-16T23:11:21.994Z,10.1
2022-11-16T23:13:21.707Z,10.2
2022-11-16T23:21:39.882Z,10.1
2022-11-16T23:23:39.567Z,10.1
2022-11-16T23:25:39.279Z,10.1
2022-11-16T23:27:38.922Z,10
2022-11-16T23:29:38.631Z,10.1
2022-11-16T23:31:38.286Z,10
2022-11-16T23:33:38.007Z,10
2022-11-16T23:35:41.081Z,10
2022-11-16T23:37:40.780Z,10
2022-11-16T23:39:40.472Z,10
2022-11-16T23:41:40.180Z,10
2022-11-16T23:43:39.864Z,10
2022-11-16T23:45:39.529Z,10
2022-11-16T23:47:39.200Z,10
2022-11-16T23:49:42.296Z,10
2022-11-16T23:51:41.985Z,10
2022-11-16T23:53:41.673Z,9.9
2022-11-16T23:55:41.379Z,9.9
2022-11-16T23:57:41.152Z,9.9
